createdAt,value
2019-05-29T00:00:30.164Z,2.47
2019-05-29T00:02:59.603Z,2.13
2019-05-29T00:05:29.131Z,2.50
2019-05-29T00:07:58.555Z,2.20
2019-05-29T00:10:28.036Z,2.03
2019-05-29T00:12:57.503Z,2.07
2019-05-29T00:15:27.015Z,2.00
2019-05-29T00:17:56.571Z,2.03
2019-05-29T00:20:26.033Z,2.03
2019-05-29T00:22:55.464Z,2.10
2019-05-29T00:25:24.911Z,2.73
2019-05-29T00:27:54.575Z,1.93
2019-05-29T00:30:24.012Z,2.30
2019-05-29T00:32:53.426Z,2.20
2019-05-29T00:35:22.858Z,2.20
2019-05-29T00:37:52.325Z,2.40
2019-05-29T00:40:21.959Z,2.07
2019-05-29T00:42:51.427Z,2.40
2019-05-29T00:45:21.553Z,2.80
2019-05-29T00:47:50.887Z,2.00
2019-05-29T00:50:20.466Z,2.43
2019-05-29T00:52:49.870Z,2.10
2019-05-29T00:55:19.290Z,2.50
2019-05-29T00:57:48.727Z,2.37
2019-05-29T01:00:19.481Z,2.87
2019-05-29T01:02:48.955Z,2.40
2019-05-29T01:05:18.626Z,2.60
2019-05-29T01:07:48.018Z,2.80
2019-05-29T01:10:19.160Z,2.80
2019-05-29T01:12:48.607Z,2.80
2019-05-29T01:15:19.537Z,2.67
2019-05-29T01:17:49.056Z,2.80
2019-05-29T01:20:19.911Z,2.57
2019-05-29T01:22:49.304Z,2.63
2019-05-29T01:25:18.885Z,2.70
2019-05-29T01:27:48.288Z,2.50
2019-05-29T01:30:17.783Z,2.63
2019-05-29T01:32:47.253Z,2.50
2019-05-29T01:35:17.829Z,2.60
2019-05-29T01:37:47.352Z,2.87
2019-05-29T01:40:21.951Z,2.90
2019-05-29T01:42:49.995Z,2.50
2019-05-29T01:45:20.019Z,2.80
2019-05-29T01:47:49.430Z,2.50
2019-05-29T01:50:19.623Z,2.67
2019-05-29T01:52:49.386Z,2.90
2019-05-29T01:55:19.791Z,2.70
2019-05-29T01:57:49.595Z,2.67
2019-05-29T02:00:20.122Z,2.73
2019-05-29T02:02:49.590Z,3.00
2019-05-29T02:05:19.970Z,2.80
2019-05-29T02:07:49.785Z,2.93
2019-05-29T02:10:20.270Z,2.93
2019-05-29T02:12:49.735Z,3.17
2019-05-29T02:15:25.990Z,2.70
2019-05-29T02:17:50.549Z,3.23
2019-05-29T02:20:21.132Z,3.00
2019-05-29T02:22:50.718Z,2.87
2019-05-29T02:25:22.605Z,2.90
2019-05-29T02:27:52.083Z,3.20
2019-05-29T02:30:23.514Z,3.27
2019-05-29T02:32:52.992Z,3.50
2019-05-29T02:35:24.192Z,3.30
2019-05-29T02:37:53.738Z,3.13
2019-05-29T02:40:25.621Z,3.27
2019-05-29T02:42:54.482Z,3.30
2019-05-29T02:45:37.352Z,3.40
2019-05-29T02:47:55.038Z,3.83
2019-05-29T02:50:26.190Z,3.67
2019-05-29T02:52:55.510Z,3.30
2019-05-29T02:55:26.722Z,3.60
2019-05-29T02:57:56.280Z,3.40
2019-05-29T03:00:48.991Z,3.40
2019-05-29T03:03:19.331Z,3.70
2019-05-29T03:05:48.752Z,3.43
2019-05-29T03:08:18.272Z,3.73
2019-05-29T03:10:47.754Z,3.60
2019-05-29T03:13:17.920Z,3.63
2019-05-29T03:15:47.469Z,3.40
2019-05-29T03:18:16.991Z,3.63
2019-05-29T03:20:46.667Z,3.90
2019-05-29T03:23:16.248Z,3.70
2019-05-29T03:25:45.730Z,3.70
2019-05-29T03:28:15.268Z,3.80
2019-05-29T03:30:46.056Z,4.10
2019-05-29T03:33:16.088Z,4.07
2019-05-29T03:35:47.821Z,4.00
2019-05-29T03:38:17.105Z,4.40
2019-05-29T03:40:46.602Z,4.30
2019-05-29T03:43:16.111Z,4.00
2019-05-29T03:45:45.770Z,3.77
2019-05-29T03:48:15.301Z,4.00
2019-05-29T03:50:44.766Z,4.30
2019-05-29T03:53:14.332Z,4.10
2019-05-29T03:55:43.889Z,4.13
2019-05-29T03:58:13.443Z,3.70
2019-05-29T04:00:46.348Z,4.20
2019-05-29T04:03:14.082Z,4.33
2019-05-29T04:05:43.501Z,3.90
2019-05-29T04:08:12.875Z,3.90
2019-05-29T04:10:42.341Z,3.73
2019-05-29T04:13:11.792Z,3.87
2019-05-29T04:15:42.832Z,4.13
2019-05-29T04:18:12.225Z,4.57
2019-05-29T04:20:42.306Z,4.43
2019-05-29T04:23:11.825Z,5.77
2019-05-29T04:25:42.996Z,8.23
2019-05-29T04:28:12.873Z,7.53
2019-05-29T04:30:42.468Z,9.30
2019-05-29T04:33:12.004Z,11.80
2019-05-29T04:35:41.635Z,9.60
2019-05-29T04:38:11.079Z,13.10
2019-05-29T04:40:40.994Z,9.67
2019-05-29T04:43:10.463Z,9.30
2019-05-29T04:45:40.312Z,7.70
2019-05-29T04:48:09.794Z,9.43
2019-05-29T04:50:40.582Z,11.40
2019-05-29T04:53:10.674Z,9.50
2019-05-29T04:55:40.168Z,8.13
2019-05-29T04:58:09.779Z,7.90
2019-05-29T05:00:39.495Z,7.90
2019-05-29T05:03:08.948Z,8.10
2019-05-29T05:05:39.541Z,7.50
2019-05-29T05:08:09.097Z,7.77
2019-05-29T05:10:40.996Z,7.77
2019-05-29T05:13:11.029Z,9.70
2019-05-29T05:15:40.441Z,9.23
2019-05-29T05:18:09.940Z,9.43
2019-05-29T05:20:40.408Z,9.90
2019-05-29T05:23:10.014Z,10.17
2019-05-29T05:25:40.863Z,10.23
2019-05-29T05:28:10.567Z,10.90
2019-05-29T05:30:40.802Z,12.60
2019-05-29T05:33:10.417Z,11.90
2019-05-29T05:35:41.042Z,11.33
2019-05-29T05:38:10.583Z,11.20
2019-05-29T05:40:42.937Z,12.70
2019-05-29T05:43:23.225Z,12.73
2019-05-29T05:45:42.533Z,14.43
2019-05-29T05:48:12.034Z,14.50
2019-05-29T05:50:41.621Z,14.47
2019-05-29T05:53:11.193Z,16.50
2019-05-29T05:55:41.845Z,15.37
2019-05-29T05:58:11.389Z,16.00
2019-05-29T06:00:42.058Z,16.13
2019-05-29T06:03:11.705Z,15.37
2019-05-29T06:05:42.322Z,15.90
2019-05-29T06:08:11.810Z,15.50
2019-05-29T06:10:42.435Z,15.87
2019-05-29T06:13:12.046Z,16.33
2019-05-29T06:15:42.813Z,16.20
2019-05-29T06:18:21.011Z,18.70
2019-05-29T06:20:43.796Z,17.20
2019-05-29T06:23:13.335Z,16.67
2019-05-29T06:25:43.844Z,15.20
2019-05-29T06:28:13.527Z,15.50
2019-05-29T06:30:44.922Z,17.83
2019-05-29T06:33:14.474Z,16.67
2019-05-29T06:35:44.243Z,16.80
2019-05-29T06:38:13.757Z,18.07
2019-05-29T06:40:44.163Z,17.60
2019-05-29T06:43:24.705Z,17.17
2019-05-29T06:45:54.919Z,17.27
2019-05-29T06:48:57.571Z,17.87
2019-05-29T06:50:59.897Z,17.00
2019-05-29T06:53:29.613Z,16.97
2019-05-29T06:56:01.080Z,16.97
2019-05-29T06:58:30.496Z,16.70
2019-05-29T07:01:00.006Z,15.70
2019-05-29T07:03:29.587Z,16.37
2019-05-29T07:05:59.122Z,15.70
2019-05-29T07:08:39.072Z,16.80
2019-05-29T07:11:00.086Z,16.17
2019-05-29T07:13:34.520Z,16.53
2019-05-29T07:16:01.653Z,15.43
2019-05-29T07:18:31.109Z,15.30
2019-05-29T07:21:00.711Z,14.90
2019-05-29T07:23:30.240Z,14.33
2019-05-29T07:25:59.698Z,14.23
2019-05-29T07:28:29.189Z,15.23
2019-05-29T07:31:02.525Z,15.70
2019-05-29T07:33:29.903Z,13.53
2019-05-29T07:35:59.674Z,15.20
2019-05-29T07:38:29.244Z,14.23
2019-05-29T07:40:58.798Z,14.73
2019-05-29T07:43:28.412Z,13.90
2019-05-29T07:45:58.062Z,14.50
2019-05-29T07:48:27.533Z,13.50
2019-05-29T07:51:06.597Z,14.53
2019-05-29T07:53:28.194Z,13.37
2019-05-29T07:55:57.668Z,13.30
2019-05-29T07:58:27.130Z,12.93
2019-05-29T08:01:13.262Z,13.30
2019-05-29T08:03:39.214Z,13.13
2019-05-29T08:06:08.966Z,13.20
2019-05-29T08:08:39.147Z,12.70
2019-05-29T08:11:08.707Z,11.93
2019-05-29T08:13:39.376Z,11.13
2019-05-29T08:16:09.041Z,12.90
2019-05-29T08:18:41.106Z,12.03
2019-05-29T08:21:09.665Z,11.77
2019-05-29T08:23:40.210Z,12.67
2019-05-29T08:26:09.765Z,12.70
2019-05-29T08:28:40.426Z,12.37
2019-05-29T08:31:09.954Z,10.77
2019-05-29T08:33:40.711Z,11.03
2019-05-29T08:36:10.312Z,11.53
2019-05-29T08:38:42.553Z,11.13
2019-05-29T08:41:11.049Z,10.63
2019-05-29T08:43:42.532Z,12.50
2019-05-29T08:46:12.002Z,12.73
2019-05-29T08:48:41.829Z,12.10
2019-05-29T08:51:11.369Z,11.00
2019-05-29T08:53:42.514Z,10.60
2019-05-29T08:56:12.465Z,10.90
2019-05-29T08:58:42.902Z,9.50
2019-05-29T09:01:12.516Z,10.70
2019-05-29T09:03:42.757Z,8.90
2019-05-29T09:06:13.756Z,9.50
2019-05-29T09:08:43.995Z,9.97
2019-05-29T09:11:14.733Z,10.40
2019-05-29T09:13:44.268Z,9.80
2019-05-29T09:16:13.719Z,9.83
2019-05-29T09:18:43.227Z,10.00
2019-05-29T09:21:14.561Z,9.60
2019-05-29T09:23:43.955Z,10.00
2019-05-29T09:26:17.676Z,9.20
2019-05-29T09:28:44.695Z,12.10
2019-05-29T09:31:15.557Z,11.07
2019-05-29T09:33:45.494Z,9.87
2019-05-29T09:36:15.759Z,10.77
2019-05-29T09:38:46.408Z,10.50
2019-05-29T09:41:17.292Z,9.53
2019-05-29T09:43:58.133Z,11.50
2019-05-29T09:46:18.807Z,12.10
2019-05-29T09:48:50.285Z,12.77
2019-05-29T09:51:21.457Z,12.30
2019-05-29T09:53:54.355Z,10.97
2019-05-29T09:56:24.716Z,11.77
2019-05-29T09:58:55.691Z,9.60
2019-05-29T10:01:25.890Z,9.40
2019-05-29T10:03:57.527Z,9.70
2019-05-29T10:06:27.003Z,9.60
2019-05-29T10:08:57.879Z,8.70
2019-05-29T10:11:27.507Z,10.03
2019-05-29T10:13:58.666Z,7.67
2019-05-29T10:16:28.243Z,6.70
2019-05-29T10:18:59.765Z,6.87
2019-05-29T10:21:40.053Z,7.20
2019-05-29T10:24:01.823Z,7.13
2019-05-29T10:26:31.684Z,6.60
2019-05-29T10:29:08.193Z,6.63
2019-05-29T10:31:32.253Z,5.47
2019-05-29T10:34:01.790Z,5.53
2019-05-29T10:36:31.277Z,4.80
2019-05-29T10:39:00.698Z,5.67
2019-05-29T10:41:30.431Z,5.40
2019-05-29T10:43:59.978Z,5.90
2019-05-29T10:46:29.493Z,5.57
2019-05-29T10:48:59.022Z,5.30
2019-05-29T10:51:28.565Z,5.20
2019-05-29T10:53:59.235Z,4.83
2019-05-29T10:56:28.901Z,5.00
2019-05-29T10:59:00.083Z,5.13
2019-05-29T11:01:29.423Z,4.90
2019-05-29T11:03:58.866Z,5.07
2019-05-29T11:06:28.322Z,4.90
2019-05-29T11:08:57.808Z,5.47
2019-05-29T11:11:27.327Z,4.60
2019-05-29T11:13:57.176Z,4.57
2019-05-29T11:16:26.527Z,5.40
2019-05-29T11:18:55.919Z,4.90
2019-05-29T11:21:25.331Z,5.20
2019-05-29T11:23:55.921Z,5.10
2019-05-29T11:26:25.578Z,4.80
2019-05-29T11:28:55.039Z,4.40
2019-05-29T11:31:24.494Z,4.27
2019-05-29T11:33:54.986Z,4.47
2019-05-29T11:36:24.522Z,5.00
2019-05-29T11:38:54.601Z,4.33
2019-05-29T11:41:26.599Z,4.60
2019-05-29T11:43:55.314Z,5.00
2019-05-29T11:46:24.757Z,4.33
2019-05-29T11:48:55.284Z,4.70
2019-05-29T11:51:24.792Z,4.77
2019-05-29T11:53:55.327Z,4.70
2019-05-29T11:56:24.820Z,5.07
2019-05-29T11:58:54.811Z,4.70
2019-05-29T12:01:24.462Z,4.87
2019-05-29T12:04:24.317Z,4.40
2019-05-29T12:06:25.085Z,4.37
2019-05-29T12:08:55.782Z,4.97
2019-05-29T12:11:25.372Z,4.03
2019-05-29T12:13:56.131Z,4.50
2019-05-29T12:16:25.753Z,4.03
2019-05-29T12:18:55.667Z,4.93
2019-05-29T12:21:25.145Z,4.90
2019-05-29T12:23:54.596Z,5.03
2019-05-29T12:26:24.007Z,4.63
2019-05-29T12:28:56.887Z,4.80
2019-05-29T12:31:24.928Z,4.10
2019-05-29T12:33:55.013Z,4.43
2019-05-29T12:36:24.528Z,4.40
2019-05-29T12:38:55.134Z,4.00
2019-05-29T12:41:24.686Z,3.80
2019-05-29T12:43:55.279Z,3.97
2019-05-29T12:46:24.897Z,4.07
2019-05-29T12:48:55.354Z,4.00
2019-05-29T12:51:24.756Z,4.10
2019-05-29T12:53:54.171Z,3.63
2019-05-29T12:56:23.802Z,3.37
2019-05-29T12:58:54.123Z,3.30
2019-05-29T13:01:23.706Z,3.30
2019-05-29T13:03:54.204Z,3.00
2019-05-29T13:06:23.655Z,2.90
2019-05-29T13:08:54.589Z,2.83
2019-05-29T13:11:24.152Z,2.60
2019-05-29T13:13:54.342Z,3.60
2019-05-29T13:16:23.880Z,3.13
2019-05-29T13:18:54.722Z,2.70
2019-05-29T13:21:24.301Z,2.87
2019-05-29T13:23:53.764Z,2.90
2019-05-29T13:26:23.421Z,3.10
2019-05-29T13:28:52.801Z,3.40
2019-05-29T13:31:22.235Z,2.83
2019-05-29T13:33:51.748Z,3.03
2019-05-29T13:36:21.261Z,3.60
2019-05-29T13:38:50.700Z,2.90
2019-05-29T13:41:20.269Z,3.00
2019-05-29T13:43:49.831Z,3.90
2019-05-29T13:46:19.333Z,3.30
2019-05-29T13:48:48.746Z,3.70
2019-05-29T13:51:18.403Z,3.70
2019-05-29T13:54:02.079Z,3.27
2019-05-29T13:56:19.082Z,3.57
2019-05-29T13:58:48.600Z,3.73
2019-05-29T14:01:18.073Z,3.33
2019-05-29T14:03:51.791Z,3.50
2019-05-29T14:06:21.358Z,3.10
2019-05-29T14:08:50.869Z,3.40
2019-05-29T14:11:20.673Z,3.13
2019-05-29T14:13:50.278Z,2.70
2019-05-29T14:16:19.793Z,2.60
2019-05-29T14:18:49.283Z,2.90
2019-05-29T14:21:18.814Z,3.10
2019-05-29T14:23:48.354Z,3.50
2019-05-29T14:26:17.878Z,3.97
2019-05-29T14:28:47.320Z,4.07
2019-05-29T14:31:16.778Z,3.40
2019-05-29T14:33:46.673Z,4.00
2019-05-29T14:36:16.153Z,4.20
2019-05-29T14:38:45.752Z,3.80
2019-05-29T14:41:15.677Z,3.87
2019-05-29T14:43:46.342Z,3.47
2019-05-29T14:46:16.261Z,3.30
2019-05-29T14:48:46.084Z,3.40
2019-05-29T14:51:15.576Z,3.77
2019-05-29T14:53:45.060Z,3.33
2019-05-29T14:56:14.544Z,3.00
2019-05-29T14:58:43.990Z,2.97
2019-05-29T15:01:13.440Z,3.33
2019-05-29T15:03:42.945Z,3.73
2019-05-29T15:06:15.232Z,3.33
2019-05-29T15:08:44.958Z,3.20
2019-05-29T15:11:14.430Z,3.47
2019-05-29T15:13:43.874Z,2.90
2019-05-29T15:16:14.795Z,2.80
2019-05-29T15:18:44.579Z,3.07
2019-05-29T15:21:15.256Z,3.00
2019-05-29T15:23:44.961Z,2.80
2019-05-29T15:26:15.730Z,3.20
2019-05-29T15:28:45.433Z,2.60
2019-05-29T15:31:16.459Z,2.97
2019-05-29T15:33:46.221Z,2.37
2019-05-29T15:36:16.843Z,2.40
2019-05-29T15:38:46.517Z,2.20
2019-05-29T15:41:16.892Z,2.20
2019-05-29T15:43:49.413Z,2.40
2019-05-29T15:46:19.099Z,2.47
2019-05-29T15:48:48.602Z,2.67
2019-05-29T15:51:21.752Z,2.13
2019-05-29T15:53:50.276Z,2.30
2019-05-29T15:56:27.396Z,2.50
2019-05-29T15:58:51.128Z,2.80
2019-05-29T16:01:20.661Z,2.43
2019-05-29T16:03:51.672Z,2.87
2019-05-29T16:06:21.242Z,3.20
2019-05-29T16:08:50.912Z,2.90
2019-05-29T16:11:20.587Z,2.83
2019-05-29T16:13:50.043Z,3.10
2019-05-29T16:16:19.612Z,2.63
2019-05-29T16:18:49.720Z,2.73
2019-05-29T16:21:19.217Z,2.50
2019-05-29T16:23:48.806Z,2.97
2019-05-29T16:26:19.992Z,2.90
2019-05-29T16:28:49.963Z,2.90
2019-05-29T16:31:19.521Z,2.87
2019-05-29T16:33:49.007Z,3.67
2019-05-29T16:36:18.722Z,2.70
2019-05-29T16:38:48.237Z,3.03
2019-05-29T16:41:18.048Z,3.20
2019-05-29T16:43:47.531Z,3.80
2019-05-29T16:46:20.561Z,3.80
2019-05-29T16:48:48.369Z,2.80
2019-05-29T16:51:18.817Z,2.70
2019-05-29T16:53:48.328Z,3.47
2019-05-29T16:56:18.973Z,3.27
2019-05-29T16:58:48.531Z,3.50
2019-05-29T17:01:19.395Z,3.00
2019-05-29T17:03:48.998Z,2.87
2019-05-29T17:06:20.003Z,2.70
2019-05-29T17:08:49.691Z,3.80
2019-05-29T17:11:20.316Z,3.50
2019-05-29T17:13:49.937Z,3.57
2019-05-29T17:16:20.634Z,3.27
2019-05-29T17:18:50.944Z,2.60
2019-05-29T17:21:20.796Z,3.00
2019-05-29T17:23:50.566Z,2.97
2019-05-29T17:26:20.784Z,2.43
2019-05-29T17:28:50.721Z,2.53
2019-05-29T17:31:20.899Z,2.83
2019-05-29T17:33:50.538Z,2.63
2019-05-29T17:36:21.078Z,3.03
2019-05-29T17:38:50.776Z,3.20
2019-05-29T17:41:21.176Z,3.00
2019-05-29T17:43:50.714Z,3.10
2019-05-29T17:46:21.701Z,2.90
2019-05-29T17:48:51.321Z,2.83
2019-05-29T17:51:21.888Z,2.80
2019-05-29T17:53:51.497Z,2.67
2019-05-29T17:56:29.611Z,2.60
2019-05-29T17:58:52.178Z,2.77
2019-05-29T18:01:22.222Z,2.70
2019-05-29T18:03:51.798Z,3.10
2019-05-29T18:06:22.414Z,2.87
2019-05-29T18:08:52.084Z,3.10
2019-05-29T18:11:21.558Z,3.20
2019-05-29T18:13:51.222Z,3.20
2019-05-29T18:16:21.571Z,2.90
2019-05-29T18:18:51.121Z,3.03
2019-05-29T18:21:21.613Z,2.77
2019-05-29T18:23:53.363Z,3.10
2019-05-29T18:26:22.487Z,3.60
2019-05-29T18:28:51.968Z,3.47
2019-05-29T18:31:22.541Z,3.40
2019-05-29T18:33:57.226Z,3.30
2019-05-29T18:36:27.468Z,3.47
2019-05-29T18:38:57.104Z,6.40
2019-05-29T18:41:26.927Z,12.50
2019-05-29T18:43:56.452Z,8.80
2019-05-29T18:46:27.223Z,8.07
2019-05-29T18:48:56.797Z,6.07
2019-05-29T18:51:26.594Z,4.60
2019-05-29T18:53:56.171Z,4.13
2019-05-29T18:56:26.495Z,4.00
2019-05-29T18:58:55.960Z,3.57
2019-05-29T19:01:25.507Z,3.67
2019-05-29T19:03:54.998Z,3.70
2019-05-29T19:06:25.560Z,3.37
2019-05-29T19:08:55.091Z,3.67
2019-05-29T19:11:25.896Z,3.50
2019-05-29T19:13:55.537Z,3.53
2019-05-29T19:16:26.334Z,3.60
2019-05-29T19:18:55.997Z,3.63
2019-05-29T19:21:26.365Z,4.10
2019-05-29T19:23:56.056Z,3.70
2019-05-29T19:26:26.657Z,4.57
2019-05-29T19:28:56.062Z,4.30
2019-05-29T19:31:25.574Z,5.43
2019-05-29T19:33:55.160Z,4.53
2019-05-29T19:36:25.558Z,4.43
2019-05-29T19:38:55.259Z,4.50
2019-05-29T19:41:25.753Z,6.07
2019-05-29T19:43:55.263Z,6.33
2019-05-29T19:46:24.870Z,6.80
2019-05-29T19:48:54.374Z,4.87
2019-05-29T19:51:37.779Z,5.00
2019-05-29T19:54:09.502Z,5.40
2019-05-29T19:56:39.059Z,5.10
2019-05-29T19:59:08.551Z,4.60
2019-05-29T20:01:40.457Z,4.90
2019-05-29T20:04:09.534Z,5.70
2019-05-29T20:06:38.993Z,5.20
2019-05-29T20:09:08.644Z,6.60
2019-05-29T20:11:38.255Z,7.20
2019-05-29T20:14:07.857Z,7.03
2019-05-29T20:16:39.102Z,7.70
2019-05-29T20:19:08.579Z,7.70
2019-05-29T20:21:38.977Z,7.27
2019-05-29T20:24:08.523Z,6.20
2019-05-29T20:26:39.346Z,5.30
2019-05-29T20:29:08.951Z,5.40
2019-05-29T20:31:38.773Z,5.37
2019-05-29T20:34:08.321Z,5.60
2019-05-29T20:36:38.809Z,5.40
2019-05-29T20:39:09.188Z,5.20
2019-05-29T20:41:41.588Z,5.00
2019-05-29T20:44:09.983Z,6.30
2019-05-29T20:46:39.514Z,7.13
2019-05-29T20:49:09.080Z,7.23
2019-05-29T20:51:38.607Z,6.60
2019-05-29T20:54:08.057Z,5.90
2019-05-29T20:56:37.817Z,5.70
2019-05-29T20:59:07.378Z,5.87
2019-05-29T21:01:40.895Z,6.10
2019-05-29T21:04:08.232Z,6.37
2019-05-29T21:06:38.617Z,5.50
2019-05-29T21:09:08.367Z,4.97
2019-05-29T21:11:37.864Z,4.40
2019-05-29T21:14:07.379Z,5.27
2019-05-29T21:16:37.638Z,5.80
2019-05-29T21:19:07.181Z,5.80
2019-05-29T21:21:36.808Z,5.60
2019-05-29T21:24:06.633Z,5.87
2019-05-29T21:26:36.914Z,5.70
2019-05-29T21:29:06.563Z,6.10
2019-05-29T21:31:37.501Z,6.00
2019-05-29T21:34:07.790Z,5.93
2019-05-29T21:36:37.995Z,5.47
2019-05-29T21:39:09.816Z,5.70
2019-05-29T21:41:40.375Z,5.60
2019-05-29T21:44:09.944Z,6.10
2019-05-29T21:46:39.395Z,6.90
2019-05-29T21:49:08.876Z,6.80
2019-05-29T21:51:39.343Z,7.33
2019-05-29T21:54:08.815Z,7.00
2019-05-29T21:56:39.420Z,7.00
2019-05-29T21:59:08.912Z,7.00
2019-05-29T22:01:38.410Z,6.97
2019-05-29T22:04:07.960Z,5.90
2019-05-29T22:06:38.522Z,6.47
2019-05-29T22:09:13.545Z,6.60
2019-05-29T22:11:43.364Z,7.17
2019-05-29T22:14:12.949Z,7.37
2019-05-29T22:16:42.477Z,7.70
2019-05-29T22:19:12.051Z,7.10
2019-05-29T22:21:41.577Z,6.87
2019-05-29T22:24:11.097Z,8.00
2019-05-29T22:26:40.589Z,7.40
2019-05-29T22:29:17.947Z,7.90
2019-05-29T22:31:41.902Z,7.30
2019-05-29T22:34:11.443Z,7.40
2019-05-29T22:36:41.022Z,7.10
2019-05-29T22:39:10.517Z,7.30
2019-05-29T22:41:40.087Z,7.53
2019-05-29T22:44:09.562Z,8.53
2019-05-29T22:46:38.994Z,7.23
2019-05-29T22:49:08.465Z,7.10
2019-05-29T22:51:37.996Z,7.87
2019-05-29T22:54:07.662Z,7.13
2019-05-29T22:56:37.265Z,7.60
2019-05-29T22:59:06.854Z,7.63
2019-05-29T23:01:36.384Z,7.17
2019-05-29T23:04:05.972Z,6.80
2019-05-29T23:06:35.430Z,7.03
2019-05-29T23:09:05.521Z,7.00
2019-05-29T23:11:35.008Z,7.87
2019-05-29T23:14:04.456Z,7.80
2019-05-29T23:16:33.886Z,8.20
2019-05-29T23:19:03.367Z,8.33
2019-05-29T23:21:32.815Z,7.40
2019-05-29T23:24:02.314Z,7.00
2019-05-29T23:26:31.780Z,8.30
2019-05-29T23:29:01.345Z,7.83
2019-05-29T23:31:30.810Z,9.70
2019-05-29T23:34:01.152Z,9.57
2019-05-29T23:36:30.946Z,9.40
2019-05-29T23:39:01.393Z,11.18
2019-05-29T23:41:31.081Z,10.30
2019-05-29T23:44:01.609Z,10.80
2019-05-29T23:46:31.161Z,11.57
2019-05-29T23:49:01.836Z,11.20
2019-05-29T23:51:31.324Z,11.47
2019-05-29T23:54:01.846Z,12.30
2019-05-29T23:56:31.425Z,11.90
2019-05-29T23:59:01.920Z,12.03
